Time;durP1;ratioP1;P1;durP2;ratioP2;P2;SDS_P1;SDS_P2;PMS_P1;PMS_P2;Temp;Humidity;BMP_temperature;BMP_pressure;BME280_temperature;BME280_humidity;BME280_pressure;Samples;Min_cycle;Max_cycle;Signal;HPM_P1;HPM_P2
2022/06/28 00:01:25;;;;;;;4.43;4.03;;;17.80;99.90;;;;;;5031454;28;20521;-83
2022/06/28 00:03:52;;;;;;;4.40;4.00;;;17.90;99.90;;;;;;5016233;28;20543;-86
2022/06/28 00:06:18;;;;;;;5.43;4.90;;;17.70;99.90;;;;;;5033004;28;20453;-85
2022/06/28 00:08:48;;;;;;;5.87;5.27;;;17.80;99.90;;;;;;5031580;28;20445;-86
2022/06/28 00:11:14;;;;;;;5.00;4.60;;;17.70;99.90;;;;;;5032857;28;20471;-84
2022/06/28 00:13:41;;;;;;;5.67;4.30;;;17.60;99.90;;;;;;5018257;28;20544;-84
2022/06/28 00:16:10;;;;;;;5.93;4.87;;;17.50;99.90;;;;;;5038351;28;20461;-86
2022/06/28 00:18:39;;;;;;;4.83;4.40;;;17.50;99.90;;;;;;5027593;28;20850;-84
2022/06/28 00:21:07;;;;;;;5.30;4.80;;;17.40;99.90;;;;;;5019972;28;20481;-84
2022/06/28 00:23:36;;;;;;;5.70;4.60;;;17.40;99.90;;;;;;5018230;28;20465;-85
2022/06/28 00:26:07;;;;;;;4.30;3.93;;;17.40;99.90;;;;;;5019821;28;20472;-82
2022/06/28 00:28:34;;;;;;;7.50;4.97;;;17.30;99.90;;;;;;5036407;28;20461;-84
2022/06/28 00:31:04;;;;;;;5.67;4.27;;;17.10;99.90;;;;;;5019536;28;20515;-82
2022/06/28 00:33:52;;;;;;;4.60;4.17;;;17.10;99.90;;;;;;5031623;28;20496;-86
2022/06/28 00:36:35;;;;;;;7.20;4.70;;;17.10;99.90;;;;;;4999432;28;20472;-84
2022/06/28 00:39:03;;;;;;;5.90;4.70;;;17.20;99.90;;;;;;5035691;28;20472;-81
2022/06/28 00:41:45;;;;;;;7.23;4.60;;;17.30;99.90;;;;;;5044588;28;20444;-85
2022/06/28 00:44:23;;;;;;;8.03;4.80;;;17.30;99.90;;;;;;5049820;28;20461;-85
2022/06/28 00:46:49;;;;;;;5.73;4.20;;;17.10;99.90;;;;;;5036723;28;20461;-85
2022/06/28 00:49:16;;;;;;;4.67;3.90;;;17.20;99.90;;;;;;5037072;28;20467;-87
2022/06/28 00:51:49;;;;;;;3.93;3.63;;;17.10;99.90;;;;;;5038406;28;20464;-85
2022/06/28 00:54:30;;;;;;;4.20;3.90;;;17.10;99.90;;;;;;5054272;28;20465;-86
2022/06/28 00:57:21;;;;;;;5.70;4.33;;;17.30;99.90;;;;;;5054485;28;20544;-86
2022/06/28 00:59:48;;;;;;;5.13;4.63;;;17.50;99.90;;;;;;5054373;28;21262;-85
2022/06/28 01:02:20;;;;;;;5.20;4.70;;;17.50;99.90;;;;;;5056456;28;20441;-87
2022/06/28 01:04:55;;;;;;;4.90;4.40;;;17.50;99.90;;;;;;5046226;28;20574;-87
2022/06/28 01:07:23;;;;;;;6.83;5.13;;;17.40;99.90;;;;;;5044018;28;20524;-84
2022/06/28 01:09:52;;;;;;;5.00;4.60;;;17.30;99.90;;;;;;5044393;28;20468;-84
2022/06/28 01:12:26;;;;;;;5.30;4.80;;;17.20;99.90;;;;;;5032542;28;20454;-84
2022/06/28 01:14:55;;;;;;;4.90;4.50;;;17.10;99.90;;;;;;5032023;28;20571;-83
2022/06/28 01:17:30;;;;;;;7.03;5.27;;;17.00;99.90;;;;;;5032901;28;20477;-84
2022/06/28 01:20:00;;;;;;;6.33;4.37;;;17.00;99.90;;;;;;5029960;28;20449;-84
2022/06/28 01:22:29;;;;;;;4.87;4.37;;;16.90;99.90;;;;;;5026947;28;20470;-85
2022/06/28 01:24:56;;;;;;;7.67;4.80;;;17.00;99.90;;;;;;5032995;28;20473;-84
2022/06/28 01:27:29;;;;;;;5.07;4.67;;;17.00;99.90;;;;;;5030906;28;20516;-84
2022/06/28 01:29:58;;;;;;;4.47;4.10;;;17.00;99.90;;;;;;5013160;28;20539;-83
2022/06/28 01:32:41;;;;;;;7.03;6.40;;;16.80;99.90;;;;;;5029182;28;20445;-82
2022/06/28 01:35:12;;;;;;;4.60;4.20;;;17.00;99.90;;;;;;5031277;28;20480;-83
2022/06/28 01:37:41;;;;;;;4.67;3.37;;;16.90;99.90;;;;;;5028870;28;20474;-83
2022/06/28 01:40:08;;;;;;;6.10;4.17;;;16.80;99.90;;;;;;5029168;28;20442;-85
2022/06/28 01:42:36;;;;;;;4.50;4.00;;;16.90;99.90;;;;;;5024337;28;20448;-86
2022/06/28 01:45:24;;;;;;;5.17;4.17;;;17.10;99.90;;;;;;5027530;28;20477;-82
2022/06/28 01:47:51;;;;;;;4.30;3.90;;;17.10;99.90;;;;;;5024675;28;20496;-85
2022/06/28 01:50:21;;;;;;;5.57;5.10;;;17.10;99.90;;;;;;5009289;28;20464;-83
2022/06/28 01:52:47;;;;;;;5.40;5.00;;;17.20;99.90;;;;;;5027008;28;20463;-85
2022/06/28 01:55:14;;;;;;;5.67;4.70;;;17.00;99.90;;;;;;5027033;28;20477;-84
2022/06/28 01:57:41;;;;;;;6.20;5.60;;;17.00;99.90;;;;;;5011169;28;20489;-83
2022/06/28 02:00:09;;;;;;;5.83;5.27;;;17.00;99.90;;;;;;5013712;28;20455;-82
2022/06/28 02:02:36;;;;;;;6.27;5.70;;;17.00;99.90;;;;;;5038217;28;20465;-84
2022/06/28 02:05:07;;;;;;;6.33;5.50;;;17.00;99.90;;;;;;5021400;28;20476;-84
2022/06/28 02:07:34;;;;;;;9.57;5.90;;;16.70;99.90;;;;;;5033393;28;21543;-85
2022/06/28 02:10:12;;;;;;;6.73;6.00;;;16.70;99.90;;;;;;5018467;28;20445;-85
2022/06/28 02:12:39;;;;;;;6.70;6.10;;;16.70;99.90;;;;;;5035110;28;20540;-83
2022/06/28 02:15:10;;;;;;;8.97;6.77;;;16.60;99.90;;;;;;5031899;28;20584;-87
2022/06/28 02:17:37;;;;;;;7.30;6.60;;;16.40;99.90;;;;;;5030662;28;20842;-85
2022/06/28 02:20:04;;;;;;;6.40;5.80;;;16.30;99.90;;;;;;5030296;28;20460;-83
2022/06/28 02:22:34;;;;;;;8.30;7.50;;;16.40;99.90;;;;;;5014325;28;20449;-85
2022/06/28 02:25:00;;;;;;;7.27;6.57;;;16.40;99.90;;;;;;5032074;28;20505;-84
2022/06/28 02:27:29;;;;;;;7.30;6.63;;;16.20;99.90;;;;;;5031333;28;20580;-84
2022/06/28 02:29:56;;;;;;;7.10;6.50;;;16.30;99.90;;;;;;5030214;28;20610;-86
2022/06/28 02:32:25;;;;;;;6.87;5.63;;;16.20;99.90;;;;;;5017409;28;21647;-82
2022/06/28 02:40:25;;;;;;;9.60;6.13;;;16.20;99.90;;;;;;5031254;28;20814;-84
2022/06/28 02:42:56;;;;;;;6.17;5.57;;;16.20;99.90;;;;;;5033813;28;20446;-85
2022/06/28 02:45:26;;;;;;;6.70;6.10;;;16.20;99.90;;;;;;5035542;28;20484;-87
2022/06/28 02:47:54;;;;;;;5.60;5.00;;;16.20;99.90;;;;;;5016993;28;20457;-84
2022/06/28 02:50:21;;;;;;;5.30;4.80;;;16.10;99.90;;;;;;5028250;28;20504;-83
2022/06/28 02:52:48;;;;;;;5.20;4.70;;;16.20;99.90;;;;;;5031954;28;20453;-84
2022/06/28 02:55:15;;;;;;;6.30;5.37;;;16.20;99.90;;;;;;5027390;28;20516;-83
2022/06/28 02:57:43;;;;;;;5.47;4.97;;;16.30;99.90;;;;;;5011005;28;20485;-83
2022/06/28 03:00:13;;;;;;;7.93;5.00;;;16.10;99.90;;;;;;5026991;28;21444;-84
2022/06/28 03:02:41;;;;;;;6.00;5.50;;;16.10;99.90;;;;;;5031312;28;20461;-85
2022/06/28 03:05:12;;;;;;;8.00;4.97;;;16.20;99.90;;;;;;5029421;28;20562;-85
2022/06/28 03:07:40;;;;;;;7.30;5.80;;;16.20;99.90;;;;;;5026961;28;20454;-82
2022/06/28 03:10:08;;;;;;;6.00;5.40;;;16.10;99.90;;;;;;5027912;28;20543;-85
2022/06/28 03:12:35;;;;;;;5.93;5.40;;;16.20;99.90;;;;;;5027413;28;20462;-84
2022/06/28 03:15:03;;;;;;;5.73;5.23;;;16.20;99.90;;;;;;5026617;28;20547;-84
2022/06/28 03:17:30;;;;;;;6.67;5.40;;;16.20;99.90;;;;;;5028087;28;21004;-82
2022/06/28 03:19:56;;;;;;;5.97;5.37;;;16.10;99.90;;;;;;5030423;28;20503;-86
2022/06/28 03:22:23;;;;;;;6.50;5.40;;;16.10;99.90;;;;;;5029301;28;20449;-87
2022/06/28 03:24:49;;;;;;;6.53;5.47;;;16.10;99.90;;;;;;5026533;28;21674;-84
2022/06/28 03:27:16;;;;;;;5.80;5.30;;;16.00;99.90;;;;;;5029070;28;20449;-82
2022/06/28 03:29:43;;;;;;;6.07;5.20;;;15.90;99.90;;;;;;5028741;28;20518;-83
2022/06/28 03:32:09;;;;;;;5.00;4.57;;;15.90;99.90;;;;;;5027860;28;20449;-84
2022/06/28 03:34:36;;;;;;;8.90;5.33;;;15.80;99.90;;;;;;5028586;28;20465;-83
2022/06/28 03:37:03;;;;;;;5.03;4.60;;;15.80;99.90;;;;;;5027495;28;20547;-84
2022/06/28 03:39:30;;;;;;;5.17;4.67;;;15.90;99.90;;;;;;5011547;28;20468;-86
2022/06/28 03:41:57;;;;;;;9.40;5.00;;;16.00;99.90;;;;;;5032217;28;20456;-86
2022/06/28 03:44:26;;;;;;;6.47;5.30;;;16.00;99.90;;;;;;5039945;28;21453;-85
2022/06/28 03:46:53;;;;;;;5.93;5.40;;;16.10;99.90;;;;;;5044085;28;20472;-84
2022/06/28 03:49:19;;;;;;;5.63;5.13;;;16.10;99.90;;;;;;5023107;28;20449;-83
2022/06/28 03:51:46;;;;;;;6.60;6.00;;;16.10;99.90;;;;;;5030048;28;21480;-85
2022/06/28 03:54:13;;;;;;;7.97;7.27;;;16.00;99.90;;;;;;5027196;28;20484;-83
2022/06/28 03:56:54;;;;;;;9.03;7.63;;;16.00;99.90;;;;;;5009612;28;20829;-82
2022/06/28 03:59:21;;;;;;;15.90;10.37;;;15.90;99.90;;;;;;5029811;28;20472;-83
2022/06/28 04:01:49;;;;;;;11.20;9.50;;;15.90;99.90;;;;;;5029957;28;21482;-81
2022/06/28 04:04:16;;;;;;;22.27;11.10;;;15.90;99.90;;;;;;5013651;28;20568;-85
2022/06/28 04:06:42;;;;;;;15.73;10.70;;;15.70;99.90;;;;;;5020445;28;20458;-83
2022/06/28 04:09:09;;;;;;;13.13;10.40;;;15.50;99.90;;;;;;5033054;28;21026;-83
2022/06/28 04:11:36;;;;;;;16.83;9.53;;;15.50;99.90;;;;;;5034297;28;20831;-84
2022/06/28 04:14:03;;;;;;;13.63;10.80;;;15.40;99.90;;;;;;5041491;28;20487;-85
2022/06/28 04:16:29;;;;;;;11.00;8.90;;;15.40;99.90;;;;;;5031606;28;20951;-83
2022/06/28 04:18:56;;;;;;;9.97;8.97;;;15.40;99.90;;;;;;5018665;28;20517;-83
2022/06/28 04:21:23;;;;;;;11.13;9.90;;;15.60;99.90;;;;;;5025999;28;20457;-83
2022/06/28 04:23:51;;;;;;;9.07;8.17;;;15.60;99.90;;;;;;5011016;28;20487;-84
2022/06/28 04:26:18;;;;;;;9.67;8.60;;;15.60;99.90;;;;;;5014460;28;20453;-84
2022/06/28 04:28:44;;;;;;;9.67;8.60;;;15.80;99.90;;;;;;5014991;28;21405;-84
2022/06/28 04:31:12;;;;;;;11.00;9.70;;;15.70;99.90;;;;;;5031834;28;20461;-84
2022/06/28 04:33:38;;;;;;;9.80;8.80;;;15.70;99.90;;;;;;5013190;28;20548;-85
2022/06/28 04:36:05;;;;;;;10.60;9.10;;;15.70;99.90;;;;;;5037449;28;20454;-86
2022/06/28 04:38:32;;;;;;;8.60;7.70;;;15.60;99.90;;;;;;5048213;28;20465;-85
2022/06/28 04:40:59;;;;;;;11.60;9.00;;;15.80;99.90;;;;;;5050434;28;20534;-84
2022/06/28 04:43:26;;;;;;;16.57;9.93;;;15.90;99.90;;;;;;5037971;28;20456;-85
2022/06/28 04:45:53;;;;;;;12.33;10.97;;;15.90;99.90;;;;;;5034693;28;20467;-82
2022/06/28 04:48:20;;;;;;;11.87;10.27;;;15.90;99.90;;;;;;5032357;28;20461;-83
2022/06/28 04:50:47;;;;;;;12.47;10.97;;;15.80;99.90;;;;;;5013875;28;20489;-84
2022/06/28 04:53:14;;;;;;;12.53;8.97;;;15.80;99.90;;;;;;5013067;28;21258;-86
2022/06/28 04:55:41;;;;;;;11.03;9.50;;;15.60;99.90;;;;;;5039441;28;20560;-85
2022/06/28 04:58:08;;;;;;;11.20;10.00;;;15.70;99.90;;;;;;5032141;28;20484;-84
2022/06/28 05:00:35;;;;;;;11.47;10.00;;;15.80;99.90;;;;;;5027628;28;20508;-85
2022/06/28 05:03:21;;;;;;;12.33;9.83;;;16.00;99.90;;;;;;5026952;28;20487;-83
2022/06/28 05:05:48;;;;;;;11.80;10.37;;;15.80;99.90;;;;;;5009750;28;20509;-83
2022/06/28 05:08:15;;;;;;;12.37;10.40;;;16.00;99.90;;;;;;5006777;28;20461;-84
2022/06/28 05:10:45;;;;;;;13.63;10.77;;;16.10;99.90;;;;;;5013269;28;21121;-85
2022/06/28 05:13:12;;;;;;;12.07;10.77;;;16.20;99.90;;;;;;5011798;28;21194;-84
2022/06/28 05:18:07;;;;;;;11.00;9.90;;;16.20;99.90;;;;;;5042297;28;20495;-84
2022/06/28 05:20:34;;;;;;;11.40;9.90;;;16.30;99.90;;;;;;5026365;28;20449;-84
2022/06/28 05:23:00;;;;;;;13.43;11.20;;;16.50;99.90;;;;;;5041370;28;20444;-84
2022/06/28 05:25:31;;;;;;;17.47;12.37;;;16.30;99.90;;;;;;5043913;28;20564;-85
2022/06/28 05:28:06;;;;;;;12.97;11.53;;;16.10;99.90;;;;;;5043189;28;20460;-85
2022/06/28 05:30:32;;;;;;;10.17;9.20;;;15.90;99.90;;;;;;5039876;28;20472;-84
2022/06/28 05:33:12;;;;;;;12.20;10.37;;;16.10;99.90;;;;;;5042942;28;20464;-84
2022/06/28 05:35:42;;;;;;;15.33;11.60;;;16.40;99.90;;;;;;5042667;28;20487;-85
2022/06/28 05:38:09;;;;;;;12.70;10.93;;;16.60;99.90;;;;;;5039986;28;20476;-86
2022/06/28 05:40:35;;;;;;;13.03;10.50;;;16.60;99.90;;;;;;5026292;28;20465;-83
2022/06/28 05:43:03;;;;;;;15.27;11.97;;;16.60;99.90;;;;;;5024000;28;20456;-86
2022/06/28 05:45:39;;;;;;;13.27;11.17;;;16.70;99.90;;;;;;5026002;28;20498;-86
2022/06/28 05:48:06;;;;;;;13.83;12.43;;;16.60;99.90;;;;;;5026546;28;20472;-83
2022/06/28 05:50:33;;;;;;;11.90;10.70;;;16.30;99.90;;;;;;5022764;28;20463;-83
2022/06/28 05:53:00;;;;;;;11.50;10.30;;;16.30;99.90;;;;;;5026751;28;20469;-83
2022/06/28 05:55:26;;;;;;;11.20;9.10;;;16.30;99.90;;;;;;5038404;28;20484;-83
2022/06/28 05:57:55;;;;;;;11.97;10.80;;;16.40;99.90;;;;;;5040086;28;20487;-83
2022/06/28 06:00:23;;;;;;;10.33;9.23;;;16.30;99.90;;;;;;5024169;28;20459;-85
2022/06/28 06:03:07;;;;;;;9.47;8.57;;;16.30;99.90;;;;;;5026328;28;20521;-84
2022/06/28 06:05:33;;;;;;;9.77;8.83;;;16.20;99.90;;;;;;5025798;28;20476;-84
2022/06/28 06:08:00;;;;;;;8.00;7.30;;;16.30;99.90;;;;;;5037801;28;20564;-83
2022/06/28 06:10:27;;;;;;;8.60;7.80;;;16.60;99.90;;;;;;5024730;28;20456;-86
2022/06/28 06:12:53;;;;;;;8.30;7.17;;;16.60;99.90;;;;;;5039131;28;20480;-84
2022/06/28 06:15:22;;;;;;;7.30;6.60;;;16.80;99.90;;;;;;5039849;28;20476;-83
2022/06/28 06:17:48;;;;;;;8.20;7.50;;;16.90;99.90;;;;;;5025152;28;20468;-84
2022/06/28 06:20:15;;;;;;;10.70;6.67;;;16.80;99.90;;;;;;5041978;28;20547;-84
2022/06/28 06:22:42;;;;;;;7.40;6.80;;;16.90;99.90;;;;;;5024289;28;20444;-86
2022/06/28 06:25:11;;;;;;;7.57;6.87;;;17.10;99.90;;;;;;5038833;28;20998;-83
2022/06/28 06:27:37;;;;;;;12.40;7.93;;;17.40;99.90;;;;;;5038488;28;20454;-83
2022/06/28 06:30:06;;;;;;;8.33;7.50;;;17.60;99.90;;;;;;5041668;28;20463;-83
2022/06/28 06:32:33;;;;;;;9.97;6.77;;;17.50;99.90;;;;;;5009952;28;20456;-83
2022/06/28 06:35:00;;;;;;;9.83;7.30;;;17.40;99.90;;;;;;5060078;22;20487;-86
2022/06/28 06:37:27;;;;;;;8.90;7.60;;;17.50;99.90;;;;;;5042125;28;20459;-83
2022/06/28 06:39:54;;;;;;;7.83;6.80;;;17.50;99.90;;;;;;5060117;28;20549;-84
2022/06/28 06:42:32;;;;;;;8.33;7.00;;;17.70;99.90;;;;;;5046366;28;20459;-82
2022/06/28 06:45:00;;;;;;;7.73;6.93;;;17.80;99.90;;;;;;5050108;28;20488;-86
2022/06/28 06:47:27;;;;;;;7.80;6.50;;;17.90;99.90;;;;;;5044273;28;20581;-85
2022/06/28 06:49:54;;;;;;;9.23;6.00;;;17.90;99.90;;;;;;5047728;28;20453;-84
2022/06/28 06:53:03;;;;;;;7.33;6.67;;;18.00;99.90;;;;;;5029479;28;20484;-87
2022/06/28 06:55:31;;;;;;;9.13;6.87;;;18.00;99.90;;;;;;5050276;28;20530;-84
2022/06/28 06:57:58;;;;;;;7.40;6.70;;;18.10;99.90;;;;;;5039996;28;20441;-85
2022/06/28 07:00:27;;;;;;;8.00;7.20;;;18.20;99.90;;;;;;5027409;28;20492;-85
2022/06/28 07:02:53;;;;;;;8.03;6.40;;;18.20;99.90;;;;;;5039648;28;20452;-82
2022/06/28 07:05:22;;;;;;;8.30;6.10;;;18.10;99.90;;;;;;5039734;28;20476;-84
2022/06/28 07:07:53;;;;;;;6.80;6.20;;;18.10;99.90;;;;;;5025142;28;20457;-85
2022/06/28 07:10:22;;;;;;;7.33;6.63;;;18.00;99.90;;;;;;5041945;28;20494;-85
2022/06/28 07:12:58;;;;;;;8.27;6.93;;;18.40;99.90;;;;;;5026120;28;20467;-84
2022/06/28 07:15:25;;;;;;;7.80;6.37;;;18.50;99.90;;;;;;5043037;28;20507;-83
2022/06/28 07:17:58;;;;;;;5.70;5.10;;;18.60;99.90;;;;;;5042655;28;20620;-83
2022/06/28 07:20:27;;;;;;;4.30;3.90;;;18.70;99.90;;;;;;5024656;28;20452;-85
2022/06/28 07:23:02;;;;;;;4.10;3.33;;;18.80;99.50;;;;;;5039047;28;20521;-83
2022/06/28 07:25:33;;;;;;;7.57;5.07;;;18.80;98.30;;;;;;5028506;28;20472;-85
2022/06/28 07:28:00;;;;;;;3.30;2.97;;;18.80;97.30;;;;;;5039131;28;20463;-86
2022/06/28 07:30:40;;;;;;;12.47;4.67;;;19.00;96.60;;;;;;5041510;28;20449;-84
2022/06/28 07:33:10;;;;;;;4.37;3.50;;;19.20;96.20;;;;;;5044924;28;20452;-86
2022/06/28 07:35:38;;;;;;;4.53;3.10;;;19.20;95.70;;;;;;5025455;28;20489;-83
2022/06/28 07:38:08;;;;;;;4.60;3.07;;;19.20;95.60;;;;;;5041054;28;20547;-83
2022/06/28 07:40:36;;;;;;;5.40;3.20;;;19.40;95.50;;;;;;5037439;28;20452;-85
2022/06/28 07:43:05;;;;;;;5.03;1.80;;;19.40;94.80;;;;;;5022743;28;20464;-83
2022/06/28 07:45:36;;;;;;;4.10;3.47;;;19.40;93.20;;;;;;5021333;28;20527;-83
2022/06/28 07:48:06;;;;;;;3.93;3.57;;;19.60;94.50;;;;;;5022584;28;20453;-85
2022/06/28 07:53:19;;;;;;;5.10;3.87;;;19.70;96.50;;;;;;5037930;28;20527;-82
2022/06/28 07:55:46;;;;;;;3.77;3.20;;;19.90;96.60;;;;;;5036348;28;20492;-84
2022/06/28 07:58:12;;;;;;;5.40;2.80;;;19.90;96.20;;;;;;5036735;28;20475;-85
2022/06/28 08:00:39;;;;;;;4.00;2.90;;;19.90;94.90;;;;;;5038084;28;20514;-84
2022/06/28 08:03:06;;;;;;;3.03;2.80;;;20.10;94.60;;;;;;5022453;28;20832;-83
2022/06/28 08:05:32;;;;;;;3.73;3.23;;;20.10;94.80;;;;;;5038941;28;20492;-83
2022/06/28 08:07:59;;;;;;;5.33;3.67;;;20.10;95.00;;;;;;5020631;28;20464;-84
2022/06/28 08:10:26;;;;;;;4.33;3.50;;;20.20;95.20;;;;;;5038631;28;20491;-84
2022/06/28 08:12:53;;;;;;;3.93;3.10;;;19.90;95.30;;;;;;5038551;28;20459;-84
2022/06/28 08:15:20;;;;;;;3.80;2.80;;;20.00;96.00;;;;;;5040184;28;20476;-83
2022/06/28 08:17:47;;;;;;;4.77;3.07;;;20.30;95.20;;;;;;5024995;28;20460;-84
2022/06/28 08:20:13;;;;;;;4.63;3.20;;;20.30;95.40;;;;;;5027115;28;20480;-83
2022/06/28 08:22:40;;;;;;;3.50;3.17;;;20.60;94.60;;;;;;5040633;28;20512;-86
2022/06/28 08:25:08;;;;;;;4.60;3.30;;;20.60;94.20;;;;;;5025207;28;22718;-84
2022/06/28 08:27:35;;;;;;;6.07;3.20;;;20.20;94.40;;;;;;5026576;28;20448;-85
2022/06/28 08:30:03;;;;;;;4.53;3.80;;;20.20;95.60;;;;;;5040500;28;20456;-84
2022/06/28 08:32:32;;;;;;;4.33;3.93;;;20.80;94.40;;;;;;5025893;28;20448;-83
2022/06/28 08:34:59;;;;;;;4.53;4.03;;;21.00;93.50;;;;;;5042330;28;20499;-84
2022/06/28 08:37:26;;;;;;;4.03;3.00;;;20.80;93.30;;;;;;5027943;28;20453;-83
2022/06/28 08:39:52;;;;;;;6.23;3.73;;;21.30;91.80;;;;;;5043096;28;20484;-82
2022/06/28 08:42:36;;;;;;;5.27;3.80;;;21.70;91.30;;;;;;5044831;28;20468;-81
2022/06/28 08:45:04;;;;;;;4.60;3.40;;;21.60;90.70;;;;;;5028310;28;20477;-84
2022/06/28 08:47:34;;;;;;;4.57;4.17;;;21.20;91.60;;;;;;5030262;28;21046;-82
2022/06/28 08:50:18;;;;;;;5.37;3.60;;;21.70;91.40;;;;;;5044426;28;20464;-84
2022/06/28 08:52:46;;;;;;;4.47;3.90;;;22.60;87.50;;;;;;5054799;28;20461;-87
2022/06/28 08:55:15;;;;;;;5.53;5.00;;;22.90;85.40;;;;;;5046692;28;20477;-85
2022/06/28 08:57:43;;;;;;;3.80;3.47;;;22.30;86.40;;;;;;5038616;28;20457;-83
2022/06/28 09:00:12;;;;;;;3.20;2.90;;;22.40;84.40;;;;;;5038982;28;20487;-85
2022/06/28 09:02:39;;;;;;;3.43;2.97;;;22.70;82.70;;;;;;5039461;28;20461;-83
2022/06/28 09:05:07;;;;;;;4.93;3.63;;;23.20;80.00;;;;;;5019009;28;20482;-83
2022/06/28 09:07:44;;;;;;;4.70;3.20;;;23.60;79.60;;;;;;4996319;28;20444;-86
2022/06/28 09:10:12;;;;;;;4.30;3.90;;;23.20;76.70;;;;;;5045415;28;20460;-84
2022/06/28 09:13:11;;;;;;;4.40;4.00;;;23.60;77.80;;;;;;5048362;28;20426;-84
2022/06/28 09:15:54;;;;;;;3.00;2.80;;;24.40;75.10;;;;;;5047522;28;20576;-84
2022/06/28 09:18:23;;;;;;;6.67;4.70;;;23.60;71.70;;;;;;5049555;28;20468;-86
2022/06/28 09:20:54;;;;;;;4.90;4.47;;;24.00;74.40;;;;;;5063165;28;20532;-86
2022/06/28 09:23:27;;;;;;;4.40;4.00;;;24.60;71.90;;;;;;5044725;28;20445;-87
2022/06/28 09:25:57;;;;;;;4.30;3.90;;;24.50;71.20;;;;;;5061511;28;20473;-85
2022/06/28 09:28:28;;;;;;;5.07;4.17;;;24.70;70.70;;;;;;5042593;28;20453;-86
2022/06/28 09:31:15;;;;;;;4.80;4.37;;;25.10;70.60;;;;;;5057126;28;20444;-87
2022/06/28 09:33:48;;;;;;;4.80;4.40;;;26.10;65.90;;;;;;5042566;28;20492;-84
2022/06/28 09:36:44;;;;;;;4.83;4.30;;;26.30;63.60;;;;;;5017435;28;20863;-85
2022/06/28 09:39:16;;;;;;;6.43;4.00;;;26.00;63.80;;;;;;5027486;28;20480;-84
2022/06/28 09:41:54;;;;;;;3.73;3.33;;;26.20;64.10;;;;;;5040910;28;20536;-83
2022/06/28 09:44:51;;;;;;;5.70;3.10;;;27.20;60.00;;;;;;5041997;28;21261;-84
2022/06/28 09:47:29;;;;;;;4.93;3.10;;;26.90;58.90;;;;;;5038951;28;20453;-84
2022/06/28 09:50:20;;;;;;;2.40;2.10;;;26.60;58.30;;;;;;5031552;28;20460;-84
2022/06/28 09:57:24;;;;;;;;;;;;;;;;;;;;;
2022/06/28 10:00:13;;;;;;;4.00;2.07;;;26.70;54.70;;;;;;5046411;28;20531;-85
2022/06/28 10:03:12;;;;;;;3.00;1.70;;;28.60;52.70;;;;;;5041401;28;20556;-83
2022/06/28 10:05:39;;;;;;;3.80;1.60;;;28.50;52.10;;;;;;5040214;28;20906;-84
2022/06/28 10:08:06;;;;;;;1.37;1.13;;;29.20;50.70;;;;;;5041079;28;20559;-85
2022/06/28 10:10:34;;;;;;;1.80;1.50;;;30.50;48.00;;;;;;5041238;28;20486;-85
2022/06/28 10:16:26;;;;;;;1.23;1.10;;;30.60;44.20;;;;;;5043882;28;20445;-86
2022/06/28 10:18:55;;;;;;;1.60;1.50;;;30.90;42.10;;;;;;5025069;28;20544;-83
2022/06/28 10:21:45;;;;;;;2.27;1.57;;;30.00;41.60;;;;;;5025589;28;20457;-86
2022/06/28 10:24:13;;;;;;;2.90;1.47;;;29.60;41.30;;;;;;5039495;28;20460;-86
2022/06/28 10:27:03;;;;;;;2.37;1.70;;;29.50;42.70;;;;;;5038834;28;20460;-84
2022/06/28 10:29:30;;;;;;;2.20;1.83;;;30.30;42.10;;;;;;5027075;28;20448;-84
2022/06/28 10:31:59;;;;;;;1.67;1.57;;;31.00;41.20;;;;;;5044290;28;20608;-86
2022/06/28 10:35:03;;;;;;;2.17;1.30;;;30.70;40.60;;;;;;5041856;28;20479;-85
2022/06/28 10:37:30;;;;;;;4.10;1.90;;;30.10;40.30;;;;;;4961233;28;20535;-86
2022/06/28 10:40:22;;;;;;;1.90;1.30;;;29.50;40.70;;;;;;5023085;28;20662;-85
2022/06/28 10:42:51;;;;;;;1.30;1.20;;;30.60;38.70;;;;;;5039778;28;20436;-84
2022/06/28 10:45:21;;;;;;;1.93;1.50;;;30.10;39.40;;;;;;5025499;28;20481;-84
2022/06/28 10:48:07;;;;;;;3.07;1.90;;;30.50;39.90;;;;;;5036993;28;20552;-84
2022/06/28 10:51:00;;;;;;;2.70;1.67;;;31.00;39.20;;;;;;5025692;28;20479;-87
2022/06/28 10:53:28;;;;;;;3.13;1.30;;;30.30;39.70;;;;;;5024745;28;20490;-86
2022/06/28 10:56:13;;;;;;;4.27;1.70;;;29.60;40.40;;;;;;5037817;28;20468;-82
2022/06/28 10:59:02;;;;;;;2.67;1.40;;;30.60;39.40;;;;;;5024790;28;20465;-83
2022/06/28 11:01:44;;;;;;;2.83;1.60;;;30.30;39.20;;;;;;5039082;28;20456;-84
2022/06/28 11:04:23;;;;;;;2.97;1.93;;;30.20;39.60;;;;;;5022803;28;20473;-84
2022/06/28 11:06:52;;;;;;;2.90;1.30;;;29.90;40.00;;;;;;5040252;28;20440;-85
2022/06/28 11:09:44;;;;;;;1.53;1.30;;;31.00;39.60;;;;;;5021752;28;21894;-86
2022/06/28 11:12:35;;;;;;;1.17;1.07;;;30.50;39.60;;;;;;5036520;28;20465;-87
2022/06/28 11:15:03;;;;;;;1.50;1.40;;;30.60;40.30;;;;;;5019207;28;21126;-82
2022/06/28 11:17:42;;;;;;;2.63;1.47;;;30.80;39.70;;;;;;5035462;28;20460;-84
2022/06/28 11:20:13;;;;;;;2.70;1.67;;;30.20;40.20;;;;;;5020287;28;20489;-84
2022/06/28 11:22:46;;;;;;;1.10;1.00;;;30.00;40.80;;;;;;5035132;28;20559;-84
2022/06/28 11:25:19;;;;;;;1.50;1.40;;;28.80;41.00;;;;;;5022403;28;20483;-86
2022/06/28 11:27:55;;;;;;;1.07;0.97;;;28.20;42.20;;;;;;5040329;28;20449;-83
2022/06/28 11:30:26;;;;;;;1.43;0.90;;;29.70;39.40;;;;;;5043712;28;20546;-84
2022/06/28 11:32:59;;;;;;;1.20;1.10;;;29.80;38.20;;;;;;5048149;28;20460;-87
2022/06/28 11:35:29;;;;;;;1.20;1.10;;;29.50;40.80;;;;;;5026175;28;20472;-85
2022/06/28 11:38:07;;;;;;;1.70;1.10;;;29.90;39.50;;;;;;5031612;28;20460;-84
2022/06/28 11:40:50;;;;;;;1.03;1.00;;;29.90;40.10;;;;;;5049735;28;20472;-85
2022/06/28 11:43:35;;;;;;;1.33;0.90;;;29.20;40.40;;;;;;5022400;28;20447;-85
2022/06/28 11:46:15;;;;;;;1.80;1.10;;;28.60;41.20;;;;;;5032601;28;20501;-86
2022/06/28 11:48:45;;;;;;;3.83;1.60;;;29.00;41.90;;;;;;5045395;28;20475;-87
2022/06/28 11:51:31;;;;;;;1.20;1.03;;;29.70;40.50;;;;;;5035246;28;20566;-86
2022/06/28 11:54:09;;;;;;;1.90;1.33;;;29.90;39.80;;;;;;5047820;28;20484;-85
2022/06/28 11:56:57;;;;;;;1.57;1.27;;;30.70;39.00;;;;;;5033357;28;20464;-87
2022/06/28 11:59:50;;;;;;;2.63;1.77;;;30.60;39.20;;;;;;5029603;28;20456;-84
2022/06/28 12:02:37;;;;;;;2.17;1.30;;;30.80;38.20;;;;;;5047771;28;20790;-86
2022/06/28 12:05:04;;;;;;;2.70;0.93;;;30.40;38.20;;;;;;5046124;28;20486;-86
2022/06/28 12:07:42;;;;;;;1.47;0.83;;;30.10;37.50;;;;;;5047122;28;20452;-84
2022/06/28 12:10:23;;;;;;;4.03;2.93;;;30.50;36.30;;;;;;5048272;28;21692;-84
2022/06/28 12:12:51;;;;;;;1.30;0.87;;;30.60;35.90;;;;;;5049748;28;21621;-84
2022/06/28 12:15:30;;;;;;;1.10;1.00;;;30.50;36.20;;;;;;5040691;28;20498;-87
2022/06/28 12:18:06;;;;;;;1.30;1.20;;;29.60;37.80;;;;;;5046351;28;20467;-85
2022/06/28 12:20:34;;;;;;;2.33;1.30;;;29.50;38.00;;;;;;5049954;28;20508;-87
2022/06/28 12:23:04;;;;;;;1.50;1.40;;;29.30;38.20;;;;;;5033088;28;20491;-84
2022/06/28 12:25:32;;;;;;;1.70;1.07;;;29.40;39.20;;;;;;5048908;28;20468;-86
2022/06/28 12:28:00;;;;;;;1.20;1.10;;;29.90;38.30;;;;;;5032382;28;20532;-84
2022/06/28 12:30:27;;;;;;;1.80;1.20;;;29.80;38.50;;;;;;5030319;28;20459;-86
2022/06/28 12:32:58;;;;;;;2.10;1.13;;;29.70;39.20;;;;;;5030968;28;20470;-84
2022/06/28 12:35:25;;;;;;;3.13;0.90;;;30.00;38.80;;;;;;5045828;28;20471;-85
2022/06/28 12:37:52;;;;;;;1.30;1.10;;;30.20;38.20;;;;;;5029593;28;20461;-85
2022/06/28 12:40:21;;;;;;;2.93;1.00;;;30.50;38.00;;;;;;5031439;28;20488;-87
2022/06/28 12:42:48;;;;;;;3.07;0.70;;;30.10;37.60;;;;;;5030378;28;20445;-86
2022/06/28 12:45:15;;;;;;;0.93;0.80;;;29.40;38.10;;;;;;5040880;28;20505;-85
2022/06/28 12:47:42;;;;;;;1.23;0.93;;;29.20;38.90;;;;;;5040987;28;20470;-88
2022/06/28 12:50:13;;;;;;;1.87;1.13;;;29.30;38.90;;;;;;5039438;28;20517;-85
2022/06/28 12:53:00;;;;;;;4.60;1.30;;;29.70;38.40;;;;;;5025170;28;20488;-86
2022/06/28 12:55:27;;;;;;;1.50;0.93;;;29.60;38.90;;;;;;5037327;28;20493;-86
2022/06/28 12:57:56;;;;;;;1.30;0.90;;;29.40;38.70;;;;;;5037424;28;20458;-85
2022/06/28 13:00:25;;;;;;;1.70;1.30;;;29.50;39.10;;;;;;5037947;28;20851;-85
2022/06/28 13:02:52;;;;;;;3.93;1.50;;;30.10;38.20;;;;;;5040629;28;20453;-85
2022/06/28 13:05:21;;;;;;;1.83;1.07;;;29.90;37.80;;;;;;5038914;28;21755;-84
2022/06/28 13:08:09;;;;;;;;;;;;;;;;;;;;;
2022/06/28 13:10:53;;;;;;;3.17;1.20;;;29.60;38.40;;;;;;5041963;28;20440;-84
2022/06/28 13:13:36;;;;;;;;;;;;;;;;;;;;;
2022/06/28 13:16:30;;;;;;;2.70;1.60;;;28.90;39.90;;;;;;5043684;28;20437;-86
2022/06/28 13:18:57;;;;;;;1.37;1.20;;;28.50;40.30;;;;;;5029557;28;20578;-85
2022/06/28 13:21:24;;;;;;;1.90;1.23;;;28.30;40.80;;;;;;5041012;28;20487;-86
2022/06/28 13:23:51;;;;;;;1.67;1.47;;;28.20;41.10;;;;;;5025051;28;20500;-82
2022/06/28 13:26:58;;;;;;;1.47;1.10;;;28.30;40.90;;;;;;5028788;28;20445;-85
2022/06/28 13:29:36;;;;;;;1.00;0.90;;;28.40;40.70;;;;;;5029122;28;20855;-85